createdAt,value
2023-01-28T00:02:17.150Z,35.00
2023-01-28T00:04:51.911Z,30.10
2023-01-28T00:07:27.059Z,34.70
2023-01-28T00:10:01.359Z,35.80
2023-01-28T00:12:35.318Z,41.10
2023-01-28T00:15:12.048Z,36.30
2023-01-28T00:17:46.096Z,34.90
2023-01-28T00:20:20.525Z,35.30
2023-01-28T00:22:54.130Z,36.60
2023-01-28T00:25:27.898Z,33.10
2023-01-28T00:28:01.761Z,35.80
2023-01-28T00:30:37.246Z,36.30
2023-01-28T00:33:11.173Z,31.40
2023-01-28T00:35:45.178Z,30.70
2023-01-28T00:38:18.782Z,31.70
2023-01-28T00:40:53.117Z,33.80
2023-01-28T00:43:26.966Z,35.90
2023-01-28T00:46:00.749Z,33.30
2023-01-28T00:48:34.708Z,34.50
2023-01-28T00:51:10.312Z,33.10
2023-01-28T00:53:44.881Z,32.30
2023-01-28T00:56:20.913Z,31.10
2023-01-28T00:58:54.546Z,31.80
2023-01-28T01:01:30.545Z,31.80
2023-01-28T01:04:04.437Z,29.70
2023-01-28T01:06:40.937Z,27.60
2023-01-28T01:09:16.190Z,29.90
2023-01-28T01:11:50.463Z,33.20
2023-01-28T01:14:24.158Z,30.60
2023-01-28T01:16:57.885Z,29.50
2023-01-28T01:19:32.495Z,29.00
2023-01-28T01:22:06.249Z,29.70
2023-01-28T01:24:40.926Z,30.70
2023-01-28T01:27:14.737Z,32.10
2023-01-28T01:29:48.398Z,30.40
2023-01-28T01:32:22.468Z,29.30
2023-01-28T01:34:56.261Z,28.90
2023-01-28T01:37:32.647Z,28.50
2023-01-28T01:40:09.436Z,27.90
2023-01-28T01:42:44.320Z,27.80
2023-01-28T01:45:19.103Z,26.10
2023-01-28T01:48:02.544Z,25.10
2023-01-28T01:50:43.775Z,24.70
2023-01-28T01:53:23.108Z,24.10
2023-01-28T01:56:03.695Z,29.20
2023-01-28T01:58:44.122Z,26.90
2023-01-28T02:01:18.995Z,23.30
2023-01-28T02:04:02.216Z,23.40
2023-01-28T02:06:38.234Z,21.50
2023-01-28T02:09:29.513Z,24.30
2023-01-28T02:12:09.599Z,22.50
2023-01-28T02:14:49.916Z,20.80
2023-01-28T02:17:24.304Z,18.70
2023-01-28T02:20:01.989Z,18.00
2023-01-28T02:23:22.070Z,19.60
2023-01-28T02:26:27.862Z,23.50
2023-01-28T02:29:15.892Z,23.10
2023-01-28T02:31:57.291Z,24.20
2023-01-28T02:34:41.730Z,24.10
2023-01-28T02:37:20.246Z,21.80
2023-01-28T02:40:02.449Z,24.70
2023-01-28T02:42:40.694Z,25.90
2023-01-28T02:45:48.661Z,22.50
2023-01-28T02:48:25.356Z,22.00
2023-01-28T02:51:11.412Z,22.50
2023-01-28T02:53:57.871Z,22.70
2023-01-28T02:56:44.070Z,22.70
2023-01-28T02:59:36.933Z,24.80
2023-01-28T03:02:24.623Z,22.70
2023-01-28T03:05:08.815Z,22.40
2023-01-28T03:07:44.089Z,22.30
2023-01-28T03:10:23.016Z,25.80
2023-01-28T03:13:18.520Z,29.70
2023-01-28T03:16:10.667Z,27.70
2023-01-28T03:19:09.477Z,20.40
2023-01-28T03:22:04.705Z,23.20
2023-01-28T03:25:04.811Z,26.80
2023-01-28T03:28:07.236Z,27.10
2023-01-28T03:31:07.039Z,25.60
2023-01-28T03:34:04.970Z,24.50
2023-01-28T03:36:49.719Z,25.00
2023-01-28T03:39:44.170Z,26.80
2023-01-28T03:42:19.319Z,25.80
2023-01-28T03:45:01.980Z,24.70
2023-01-28T03:47:37.164Z,22.00
2023-01-28T03:50:14.198Z,23.50
2023-01-28T03:53:13.455Z,22.70
2023-01-28T03:55:54.974Z,24.90
2023-01-28T03:58:46.691Z,25.90
2023-01-28T04:01:21.905Z,25.60
2023-01-28T04:03:55.875Z,24.80
2023-01-28T04:06:33.324Z,24.20
2023-01-28T04:09:26.377Z,28.00
2023-01-28T04:12:23.769Z,24.90
2023-01-28T04:14:58.888Z,25.80
2023-01-28T04:17:35.936Z,24.60
2023-01-28T04:20:12.808Z,23.60
2023-01-28T04:22:46.549Z,31.70
2023-01-28T04:25:21.701Z,30.20
2023-01-28T04:27:55.503Z,26.40
2023-01-28T04:30:32.123Z,30.30
2023-01-28T04:33:32.312Z,27.60
2023-01-28T04:36:29.781Z,24.00
2023-01-28T04:39:25.703Z,29.20
2023-01-28T04:42:29.076Z,28.60
2023-01-28T04:45:17.775Z,26.40
2023-01-28T04:48:02.405Z,27.00
2023-01-28T04:50:53.818Z,28.10
2023-01-28T04:53:41.235Z,26.00
2023-01-28T04:56:30.403Z,28.00
2023-01-28T04:59:04.306Z,22.70
2023-01-28T05:01:39.645Z,22.70
2023-01-28T05:04:13.707Z,24.30
2023-01-28T05:06:47.583Z,28.20
2023-01-28T05:09:24.149Z,30.70
2023-01-28T05:11:58.559Z,27.50
2023-01-28T05:14:32.181Z,27.40
2023-01-28T05:17:12.119Z,25.70
2023-01-28T05:19:47.689Z,25.60
2023-01-28T05:22:30.071Z,32.10
2023-01-28T05:25:33.043Z,30.10
2023-01-28T05:28:07.371Z,30.50
2023-01-28T05:30:42.601Z,34.00
2023-01-28T05:33:16.452Z,35.40
2023-01-28T05:35:50.724Z,40.00
2023-01-28T05:43:54.803Z,28.70
2023-01-28T05:46:45.765Z,28.40
2023-01-28T05:49:38.715Z,32.20
2023-01-28T05:52:38.450Z,34.50
2023-01-28T05:55:17.262Z,31.40
2023-01-28T05:57:52.535Z,33.40
2023-01-28T06:00:30.075Z,26.10
2023-01-28T06:03:04.435Z,37.30
2023-01-28T06:05:38.828Z,35.70
2023-01-28T06:08:13.895Z,32.40
2023-01-28T06:10:48.829Z,30.70
2023-01-28T06:13:22.635Z,33.00
2023-01-28T06:16:12.423Z,31.30
2023-01-28T06:19:09.304Z,37.50
2023-01-28T06:21:44.191Z,30.30
2023-01-28T06:24:18.636Z,29.90
2023-01-28T06:26:52.422Z,32.50
2023-01-28T06:29:26.277Z,29.20
2023-01-28T06:32:00.255Z,31.20
2023-01-28T06:34:34.384Z,31.10
2023-01-28T06:37:08.298Z,28.10
2023-01-28T06:39:42.217Z,23.50
2023-01-28T06:42:16.070Z,28.60
2023-01-28T06:44:50.101Z,30.00
2023-01-28T06:47:24.153Z,35.50
2023-01-28T06:49:58.162Z,29.30
2023-01-28T06:52:31.818Z,27.40
2023-01-28T06:55:06.049Z,26.50
2023-01-28T06:57:42.864Z,28.90
2023-01-28T07:00:19.460Z,31.10
2023-01-28T07:02:56.399Z,25.50
2023-01-28T07:05:30.297Z,29.00
2023-01-28T07:08:03.963Z,24.30
2023-01-28T07:10:38.033Z,29.60
2023-01-28T07:13:13.174Z,28.10
2023-01-28T07:15:47.032Z,27.70
2023-01-28T07:18:20.729Z,24.70
2023-01-28T07:20:54.528Z,23.50
2023-01-28T07:23:29.207Z,25.70
2023-01-28T07:26:07.426Z,30.70
2023-01-28T07:28:41.173Z,29.00
2023-01-28T07:31:15.170Z,26.50
2023-01-28T07:33:49.096Z,28.70
2023-01-28T07:36:23.096Z,22.20
2023-01-28T07:38:57.020Z,27.30
2023-01-28T07:41:31.354Z,26.60
2023-01-28T07:44:12.097Z,25.40
2023-01-28T07:46:46.056Z,26.50
2023-01-28T07:49:19.805Z,23.30
2023-01-28T07:51:53.764Z,26.60
2023-01-28T07:54:27.629Z,27.90
2023-01-28T07:57:01.789Z,24.80
2023-01-28T07:59:35.478Z,24.60
2023-01-28T08:02:13.632Z,25.70
2023-01-28T08:04:47.572Z,28.10
2023-01-28T08:07:21.805Z,34.80
2023-01-28T08:09:55.468Z,34.60
2023-01-28T08:12:30.023Z,29.50
2023-01-28T08:15:05.584Z,28.80
2023-01-28T08:17:39.655Z,30.80
2023-01-28T08:20:16.593Z,31.30
2023-01-28T08:22:50.572Z,31.80
2023-01-28T08:25:24.620Z,29.50
2023-01-28T08:27:58.421Z,30.70
2023-01-28T08:30:32.219Z,30.90
2023-01-28T08:33:07.121Z,29.60
2023-01-28T08:35:41.639Z,33.10
2023-01-28T08:38:18.010Z,34.90
2023-01-28T08:40:54.141Z,30.80
2023-01-28T08:43:28.352Z,31.20
2023-01-28T08:46:02.074Z,31.20
2023-01-28T08:48:35.913Z,32.70
2023-01-28T08:51:10.459Z,32.10
2023-01-28T08:53:44.255Z,32.60
2023-01-28T08:56:18.320Z,31.00
2023-01-28T08:58:52.336Z,32.40
2023-01-28T09:01:29.347Z,31.50
2023-01-28T09:04:03.173Z,31.00
2023-01-28T09:06:37.113Z,29.70
2023-01-28T09:09:10.935Z,28.60
2023-01-28T09:11:44.513Z,29.20
2023-01-28T09:14:18.439Z,34.00
2023-01-28T09:16:52.108Z,31.40
2023-01-28T09:19:25.851Z,22.50
2023-01-28T09:21:59.704Z,30.40
2023-01-28T09:24:33.407Z,33.50
2023-01-28T09:27:07.920Z,31.40
2023-01-28T09:29:41.688Z,29.00
2023-01-28T09:32:15.554Z,25.60
2023-01-28T09:34:49.509Z,29.50
2023-01-28T09:37:23.246Z,31.70
2023-01-28T09:39:57.479Z,29.20
2023-01-28T09:42:50.487Z,27.70
2023-01-28T09:45:34.221Z,28.60
2023-01-28T09:48:15.756Z,31.00
2023-01-28T09:50:53.363Z,34.10
2023-01-28T09:53:32.288Z,28.30
2023-01-28T09:56:12.798Z,25.60
2023-01-28T09:58:47.569Z,27.50
2023-01-28T10:01:42.442Z,29.60
2023-01-28T10:04:34.748Z,26.70
2023-01-28T10:07:29.559Z,23.10
2023-01-28T10:10:11.762Z,24.70
2023-01-28T10:13:01.332Z,24.30
2023-01-28T10:16:01.204Z,26.00
2023-01-28T10:18:45.443Z,25.30
2023-01-28T10:21:28.508Z,19.90
2023-01-28T10:24:12.817Z,21.50
2023-01-28T10:26:47.157Z,22.80
2023-01-28T10:29:25.476Z,17.80
2023-01-28T10:32:07.042Z,22.10
2023-01-28T10:34:41.832Z,20.20
2023-01-28T10:37:18.202Z,20.20
2023-01-28T10:39:54.199Z,21.40
2023-01-28T10:42:34.709Z,19.00
2023-01-28T10:45:20.465Z,22.60
2023-01-28T10:48:01.315Z,19.70
2023-01-28T10:50:36.447Z,17.60
2023-01-28T10:53:10.867Z,16.80
2023-01-28T10:55:57.324Z,16.00
2023-01-28T10:58:36.341Z,19.20
2023-01-28T11:01:11.658Z,20.90
2023-01-28T11:03:57.184Z,16.80
2023-01-28T11:06:32.657Z,17.50
2023-01-28T11:09:21.048Z,19.00
2023-01-28T11:11:54.922Z,16.60
2023-01-28T11:14:30.892Z,17.50
2023-01-28T11:17:04.720Z,18.80
2023-01-28T11:19:41.935Z,17.70
2023-01-28T11:22:33.635Z,16.00
2023-01-28T11:25:20.533Z,17.60
2023-01-28T11:27:56.675Z,16.30
2023-01-28T11:30:34.076Z,20.90
2023-01-28T11:33:19.118Z,13.00
2023-01-28T11:36:05.888Z,16.30
2023-01-28T11:38:51.597Z,15.70
2023-01-28T11:41:32.418Z,14.70
2023-01-28T11:44:17.943Z,14.10
2023-01-28T11:47:51.002Z,15.40
2023-01-28T11:50:37.538Z,12.90
2023-01-28T11:53:40.533Z,15.30
2023-01-28T11:56:37.667Z,11.60
2023-01-28T11:59:38.216Z,13.60
2023-01-28T12:02:33.459Z,13.80
2023-01-28T12:05:33.375Z,13.10
2023-01-28T12:08:19.661Z,12.90
2023-01-28T12:11:15.210Z,12.30
2023-01-28T12:14:08.297Z,14.00
2023-01-28T12:17:02.941Z,11.80
2023-01-28T12:19:54.321Z,13.80
2023-01-28T12:22:48.166Z,11.20
2023-01-28T12:25:37.989Z,12.80
2023-01-28T12:28:30.814Z,14.70
2023-01-28T12:31:26.275Z,12.00
2023-01-28T12:34:39.305Z,11.10
2023-01-28T12:37:29.455Z,10.90
2023-01-28T12:40:26.421Z,13.00
2023-01-28T12:43:07.159Z,11.70
2023-01-28T12:45:46.941Z,11.70
2023-01-28T12:48:26.860Z,12.40
2023-01-28T12:51:08.568Z,14.10
2023-01-28T12:53:53.897Z,14.80
2023-01-28T12:56:34.676Z,16.20
2023-01-28T12:59:17.081Z,15.30
2023-01-28T13:02:01.862Z,15.50
2023-01-28T13:04:47.661Z,16.40
2023-01-28T13:07:27.882Z,15.40
2023-01-28T13:10:14.258Z,16.90
2023-01-28T13:12:49.988Z,15.10
2023-01-28T13:15:25.983Z,16.80
2023-01-28T13:18:02.746Z,15.10
2023-01-28T13:20:48.213Z,13.60
2023-01-28T13:23:40.613Z,14.50
2023-01-28T13:26:31.727Z,14.70
2023-01-28T13:29:33.144Z,14.70
2023-01-28T13:32:30.792Z,15.10
2023-01-28T13:35:08.908Z,14.10
2023-01-28T13:37:48.627Z,13.00
2023-01-28T13:40:31.680Z,12.20
2023-01-28T13:43:22.696Z,13.10
2023-01-28T13:46:04.490Z,11.60
2023-01-28T13:48:51.206Z,15.80
2023-01-28T13:51:29.905Z,16.10
2023-01-28T13:54:08.353Z,15.40
2023-01-28T13:57:05.134Z,13.60
2023-01-28T13:59:56.026Z,14.20
2023-01-28T14:03:13.888Z,13.70
2023-01-28T14:06:07.440Z,16.50
2023-01-28T14:09:13.029Z,13.00
2023-01-28T14:12:26.310Z,11.00
2023-01-28T14:15:57.513Z,11.90
2023-01-28T14:18:37.284Z,12.80
2023-01-28T14:21:17.506Z,11.50
2023-01-28T14:23:54.499Z,13.00
2023-01-28T14:26:53.926Z,15.70
2023-01-28T14:29:48.706Z,12.60
2023-01-28T14:32:30.802Z,12.40
2023-01-28T14:35:10.551Z,10.00
2023-01-28T14:37:44.737Z,8.50
2023-01-28T14:40:22.239Z,8.80
2023-01-28T14:42:59.123Z,11.00
2023-01-28T14:46:05.174Z,11.70
2023-01-28T14:48:53.712Z,10.00
2023-01-28T14:52:22.608Z,9.60
2023-01-28T14:55:10.483Z,9.80
2023-01-28T14:57:53.583Z,7.80
2023-01-28T15:00:30.926Z,10.60
2023-01-28T15:03:24.825Z,11.50
2023-01-28T15:06:16.965Z,9.10
2023-01-28T15:08:52.612Z,9.90
2023-01-28T15:11:30.590Z,9.70
2023-01-28T15:14:07.679Z,9.20
2023-01-28T15:16:51.598Z,8.30
2023-01-28T15:19:33.572Z,9.10
2023-01-28T15:22:17.617Z,8.70
2023-01-28T15:24:54.741Z,9.40
2023-01-28T15:27:34.569Z,10.10
2023-01-28T15:30:29.685Z,11.90
2023-01-28T15:33:14.603Z,8.00
2023-01-28T15:35:53.928Z,8.20
2023-01-28T15:38:32.592Z,6.60
2023-01-28T15:41:14.570Z,8.90
2023-01-28T15:43:54.609Z,9.60
2023-01-28T15:46:34.595Z,10.50
2023-01-28T15:49:19.610Z,9.60
2023-01-28T15:51:57.579Z,9.90
2023-01-28T15:54:35.595Z,10.50
2023-01-28T15:57:27.857Z,7.90
2023-01-28T16:00:20.575Z,9.40
2023-01-28T16:02:57.722Z,7.60
2023-01-28T16:05:36.669Z,9.00
2023-01-28T16:16:00.600Z,10.20
2023-01-28T16:18:47.519Z,9.00
2023-01-28T16:21:29.687Z,12.20
2023-01-28T16:24:24.532Z,12.80
2023-01-28T16:27:06.974Z,12.60
2023-01-28T16:29:41.414Z,15.40
2023-01-28T16:32:39.292Z,13.80
2023-01-28T16:35:20.107Z,12.40
2023-01-28T16:37:54.500Z,15.60
2023-01-28T16:40:29.018Z,13.10
2023-01-28T16:43:03.335Z,13.50
2023-01-28T16:45:37.476Z,13.50
2023-01-28T16:48:12.556Z,18.80
2023-01-28T16:50:47.286Z,13.30
2023-01-28T16:53:28.689Z,13.90
2023-01-28T16:56:03.807Z,11.20
2023-01-28T16:58:38.529Z,10.30
2023-01-28T17:01:13.259Z,12.70
2023-01-28T17:03:47.425Z,9.60
2023-01-28T17:06:22.932Z,10.80
2023-01-28T17:08:56.853Z,8.30
2023-01-28T17:11:33.345Z,8.90
2023-01-28T17:14:07.808Z,8.50
2023-01-28T17:16:42.343Z,9.80
2023-01-28T17:19:17.668Z,10.60
2023-01-28T17:21:54.095Z,12.90
2023-01-28T17:24:30.378Z,10.60
2023-01-28T17:27:07.047Z,9.30
2023-01-28T17:29:41.869Z,11.00
2023-01-28T17:32:16.057Z,10.20
2023-01-28T17:34:51.276Z,10.00
2023-01-28T17:37:25.563Z,12.60
2023-01-28T17:40:00.206Z,10.80
2023-01-28T17:42:34.249Z,11.10
2023-01-28T17:45:10.355Z,11.30
2023-01-28T17:47:44.710Z,13.10
2023-01-28T17:50:18.923Z,11.10
2023-01-28T17:52:57.329Z,13.90
2023-01-28T17:55:31.610Z,15.20
2023-01-28T17:58:05.995Z,13.60
2023-01-28T18:00:40.162Z,12.80
2023-01-28T18:03:17.927Z,9.30
2023-01-28T18:06:03.496Z,12.80
2023-01-28T18:08:38.571Z,12.60
2023-01-28T18:11:15.246Z,18.90
2023-01-28T18:13:50.098Z,18.80
2023-01-28T18:16:25.274Z,14.50
2023-01-28T18:19:00.787Z,14.50
2023-01-28T18:21:56.956Z,14.20
2023-01-28T18:24:33.571Z,18.40
2023-01-28T18:27:07.571Z,17.00
2023-01-28T18:29:41.510Z,16.10
2023-01-28T18:32:15.295Z,21.40
2023-01-28T18:34:49.531Z,21.00
2023-01-28T18:37:23.762Z,15.00
2023-01-28T18:39:58.624Z,16.00
2023-01-28T18:42:33.041Z,16.10
2023-01-28T18:45:08.752Z,14.60
2023-01-28T18:47:42.945Z,15.10
2023-01-28T18:50:17.390Z,12.10
2023-01-28T18:52:54.203Z,11.50
2023-01-28T18:55:28.581Z,14.20
2023-01-28T18:58:02.616Z,9.00
2023-01-28T19:00:36.745Z,12.50
2023-01-28T19:03:10.986Z,7.50
2023-01-28T19:05:44.950Z,6.50
2023-01-28T19:08:18.995Z,8.50
2023-01-28T19:11:00.524Z,9.10
2023-01-28T19:13:34.643Z,7.90
2023-01-28T19:16:09.848Z,8.70
2023-01-28T19:18:43.944Z,11.20
2023-01-28T19:21:18.143Z,14.10
2023-01-28T19:23:57.318Z,10.60
2023-01-28T19:26:33.473Z,9.80
2023-01-28T19:29:09.583Z,11.90
2023-01-28T19:31:44.870Z,8.90
2023-01-28T19:34:19.204Z,9.80
2023-01-28T19:36:53.626Z,9.90
2023-01-28T19:39:27.678Z,9.40
2023-01-28T19:42:02.414Z,11.30
2023-01-28T19:44:37.488Z,12.60
2023-01-28T19:47:11.839Z,12.50
2023-01-28T19:49:46.043Z,11.40
2023-01-28T19:52:20.860Z,13.80
2023-01-28T19:54:54.925Z,11.60
2023-01-28T19:57:28.924Z,9.30
2023-01-28T20:00:03.225Z,12.00
2023-01-28T20:02:39.640Z,9.40
2023-01-28T20:05:15.302Z,11.00
2023-01-28T20:07:49.971Z,10.40
2023-01-28T20:10:25.105Z,9.60
2023-01-28T20:13:00.366Z,14.00
2023-01-28T20:15:34.478Z,10.70
2023-01-28T20:18:09.195Z,9.50
2023-01-28T20:20:43.329Z,6.20
2023-01-28T20:23:17.332Z,11.10
2023-01-28T20:25:58.549Z,11.00
2023-01-28T20:28:33.042Z,16.70
2023-01-28T20:31:11.696Z,14.40
2023-01-28T20:33:45.977Z,15.90
2023-01-28T20:36:20.407Z,14.60
2023-01-28T20:38:55.126Z,15.50
2023-01-28T20:41:31.656Z,17.20
2023-01-28T20:44:06.184Z,11.10
2023-01-28T20:46:46.606Z,10.80
2023-01-28T20:49:22.922Z,10.60
2023-01-28T20:51:57.345Z,12.50
2023-01-28T20:54:31.831Z,7.40
2023-01-28T20:57:05.799Z,9.50
2023-01-28T20:59:39.834Z,8.70
2023-01-28T21:02:15.320Z,12.20
2023-01-28T21:04:49.267Z,12.60
2023-01-28T21:07:23.117Z,11.60
2023-01-28T21:09:57.620Z,12.10
2023-01-28T21:12:32.183Z,12.20
2023-01-28T21:15:08.060Z,16.90
2023-01-28T21:17:42.015Z,17.30
2023-01-28T21:20:17.486Z,15.30
2023-01-28T21:22:55.997Z,15.10
2023-01-28T21:25:30.256Z,12.50
2023-01-28T21:28:04.033Z,10.40
2023-01-28T21:30:38.150Z,11.40
2023-01-28T21:33:12.834Z,12.60
2023-01-28T21:35:47.602Z,12.20
2023-01-28T21:38:22.121Z,10.50
2023-01-28T21:41:01.941Z,10.40
2023-01-28T21:43:36.877Z,10.60
2023-01-28T21:46:11.188Z,10.80
2023-01-28T21:48:45.400Z,12.10
2023-01-28T21:51:39.515Z,12.20
2023-01-28T21:54:17.292Z,10.50
2023-01-28T21:56:53.204Z,9.10
2023-01-28T21:59:30.330Z,9.10
2023-01-28T22:02:07.718Z,11.00
2023-01-28T22:04:46.267Z,15.80
2023-01-28T22:07:21.650Z,23.50
2023-01-28T22:09:58.209Z,33.80
2023-01-28T22:12:32.020Z,45.70
2023-01-28T22:15:06.928Z,30.90
2023-01-28T22:17:43.712Z,35.20
2023-01-28T22:20:18.471Z,34.10
2023-01-28T22:22:52.625Z,23.60
2023-01-28T22:25:26.647Z,25.50
2023-01-28T22:28:00.424Z,20.80
2023-01-28T22:30:34.279Z,17.30
2023-01-28T22:33:08.386Z,14.80
2023-01-28T22:35:42.196Z,16.50
2023-01-28T22:38:16.307Z,16.00
2023-01-28T22:40:50.116Z,18.50
2023-01-28T22:43:24.037Z,17.40
2023-01-28T22:46:05.071Z,17.00
2023-01-28T22:48:41.166Z,21.40
2023-01-28T22:51:20.402Z,21.20
2023-01-28T22:53:54.893Z,19.70
2023-01-28T22:56:32.208Z,17.50
2023-01-28T22:59:07.526Z,14.50
2023-01-28T23:01:41.836Z,13.30
2023-01-28T23:04:15.870Z,14.00
2023-01-28T23:06:49.695Z,12.70
2023-01-28T23:09:23.304Z,15.90
2023-01-28T23:11:57.229Z,10.90
2023-01-28T23:14:48.690Z,12.20
2023-01-28T23:17:39.912Z,11.80
2023-01-28T23:20:33.059Z,14.90
2023-01-28T23:23:24.844Z,12.80
2023-01-28T23:25:58.830Z,15.80
2023-01-28T23:28:32.935Z,13.70
2023-01-28T23:31:08.632Z,13.50
2023-01-28T23:33:42.772Z,11.90
2023-01-28T23:36:17.095Z,11.00
2023-01-28T23:38:51.008Z,13.60
2023-01-28T23:41:24.889Z,11.30
2023-01-28T23:43:58.507Z,9.10
2023-01-28T23:46:39.312Z,9.40
2023-01-28T23:49:14.124Z,11.90
2023-01-28T23:51:48.258Z,8.70
2023-01-28T23:54:22.439Z,10.60
2023-01-28T23:56:56.322Z,9.90
2023-01-28T23:59:30.716Z,9.60
